sensor_id;sensor_type;location;lat;lon;timestamp;pressure;altitude;pressure_sealevel;temperature;humidity
36664;BME280;53333;51.976;20.144;2023-03-01T00:01:56;101576.34;;;-1.03;52.29
36664;BME280;53333;51.976;20.144;2023-03-01T00:04:29;101574.59;;;-1.03;52.23
36664;BME280;53333;51.976;20.144;2023-03-01T00:07:01;101576.41;;;-1.00;52.16
36664;BME280;53333;51.976;20.144;2023-03-01T00:09:35;101576.41;;;-1.00;52.10
36664;BME280;53333;51.976;20.144;2023-03-01T00:12:09;101577.34;;;-0.98;52.09
36664;BME280;53333;51.976;20.144;2023-03-01T00:14:42;101582.56;;;-0.98;52.03
36664;BME280;53333;51.976;20.144;2023-03-01T00:17:15;101583.50;;;-0.96;52.05
36664;BME280;53333;51.976;20.144;2023-03-01T00:19:48;101583.53;;;-0.95;52.02
36664;BME280;53333;51.976;20.144;2023-03-01T00:22:21;101593.13;;;-0.95;52.00
36664;BME280;53333;51.976;20.144;2023-03-01T00:24:54;101595.75;;;-0.95;52.03
36664;BME280;53333;51.976;20.144;2023-03-01T00:27:28;101591.34;;;-0.96;52.02
36664;BME280;53333;51.976;20.144;2023-03-01T00:30:01;101594.84;;;-0.97;51.98
36664;BME280;53333;51.976;20.144;2023-03-01T00:32:34;101601.78;;;-0.99;51.96
36664;BME280;53333;51.976;20.144;2023-03-01T00:35:07;101602.66;;;-1.00;52.02
36664;BME280;53333;51.976;20.144;2023-03-01T00:37:40;101589.41;;;-1.06;52.05
36664;BME280;53333;51.976;20.144;2023-03-01T00:40:13;101587.59;;;-1.09;52.18
36664;BME280;53333;51.976;20.144;2023-03-01T00:42:49;101583.22;;;-1.10;52.09
36664;BME280;53333;51.976;20.144;2023-03-01T00:45:22;101583.16;;;-1.13;52.18
36664;BME280;53333;51.976;20.144;2023-03-01T00:47:54;101575.22;;;-1.16;52.23
36664;BME280;53333;51.976;20.144;2023-03-01T00:50:27;101567.28;;;-1.19;52.28
36664;BME280;53333;51.976;20.144;2023-03-01T00:53:00;101576.81;;;-1.21;52.25
36664;BME280;53333;51.976;20.144;2023-03-01T00:55:33;101570.66;;;-1.23;52.16
36664;BME280;53333;51.976;20.144;2023-03-01T00:58:07;101567.13;;;-1.25;52.27
36664;BME280;53333;51.976;20.144;2023-03-01T01:00:40;101575.81;;;-1.28;52.26
36664;BME280;53333;51.976;20.144;2023-03-01T01:03:13;101567.03;;;-1.30;52.25
36664;BME280;53333;51.976;20.144;2023-03-01T01:05:46;101566.13;;;-1.32;52.33
36664;BME280;53333;51.976;20.144;2023-03-01T01:08:19;101559.09;;;-1.33;52.29
36664;BME280;53333;51.976;20.144;2023-03-01T01:10:54;101552.94;;;-1.35;52.16
36664;BME280;53333;51.976;20.144;2023-03-01T01:13:28;101556.44;;;-1.35;52.28
36664;BME280;53333;51.976;20.144;2023-03-01T01:16:01;101554.66;;;-1.36;52.21
36664;BME280;53333;51.976;20.144;2023-03-01T01:18:38;101542.38;;;-1.38;52.27
36664;BME280;53333;51.976;20.144;2023-03-01T01:21:14;101547.56;;;-1.41;52.29
36664;BME280;53333;51.976;20.144;2023-03-01T01:23:47;101541.44;;;-1.42;52.25
36664;BME280;53333;51.976;20.144;2023-03-01T01:26:20;101537.06;;;-1.41;52.11
36664;BME280;53333;51.976;20.144;2023-03-01T01:28:58;101533.56;;;-1.42;52.21
36664;BME280;53333;51.976;20.144;2023-03-01T01:31:32;101527.41;;;-1.42;52.18
36664;BME280;53333;51.976;20.144;2023-03-01T01:34:06;101534.44;;;-1.41;52.12
36664;BME280;53333;51.976;20.144;2023-03-01T01:36:40;101524.78;;;-1.42;52.11
36664;BME280;53333;51.976;20.144;2023-03-01T01:39:12;101516.06;;;-1.43;52.17
36664;BME280;53333;51.976;20.144;2023-03-01T01:41:46;101511.63;;;-1.46;52.13
36664;BME280;53333;51.976;20.144;2023-03-01T01:44:20;101506.34;;;-1.47;52.13
36664;BME280;53333;51.976;20.144;2023-03-01T01:46:55;101501.97;;;-1.48;52.17
36664;BME280;53333;51.976;20.144;2023-03-01T01:49:31;101497.59;;;-1.48;52.16
36664;BME280;53333;51.976;20.144;2023-03-01T01:52:07;101499.31;;;-1.50;52.16
36664;BME280;53333;51.976;20.144;2023-03-01T01:54:42;101496.66;;;-1.51;52.19
36664;BME280;53333;51.976;20.144;2023-03-01T01:57:18;101489.59;;;-1.54;52.18
36664;BME280;53333;51.976;20.144;2023-03-01T01:59:54;101490.44;;;-1.55;52.28
36664;BME280;53333;51.976;20.144;2023-03-01T02:02:27;101493.06;;;-1.55;52.27
36664;BME280;53333;51.976;20.144;2023-03-01T02:05:01;101487.81;;;-1.55;52.22
36664;BME280;53333;51.976;20.144;2023-03-01T02:07:36;101487.84;;;-1.53;52.18
36664;BME280;53333;51.976;20.144;2023-03-01T02:10:10;101488.72;;;-1.54;52.16
36664;BME280;53333;51.976;20.144;2023-03-01T02:12:43;101480.88;;;-1.54;52.11
36664;BME280;53333;51.976;20.144;2023-03-01T02:15:18;101482.56;;;-1.56;52.00
36664;BME280;53333;51.976;20.144;2023-03-01T02:17:51;101482.47;;;-1.61;52.23
36664;BME280;53333;51.976;20.144;2023-03-01T02:20:27;101474.53;;;-1.64;52.22
36664;BME280;53333;51.976;20.144;2023-03-01T02:23:05;101471.91;;;-1.64;52.15
36664;BME280;53333;51.976;20.144;2023-03-01T02:25:42;101474.47;;;-1.67;52.31
36664;BME280;53333;51.976;20.144;2023-03-01T02:31:09;101476.13;;;-1.72;52.42
36664;BME280;53333;51.976;20.144;2023-03-01T02:33:59;101469.09;;;-1.73;52.37
36664;BME280;53333;51.976;20.144;2023-03-01T02:36:36;101469.06;;;-1.75;52.40
36664;BME280;53333;51.976;20.144;2023-03-01T02:39:10;101474.25;;;-1.76;52.31
36664;BME280;53333;51.976;20.144;2023-03-01T02:41:47;101486.47;;;-1.77;52.39
36664;BME280;53333;51.976;20.144;2023-03-01T02:44:20;101474.25;;;-1.76;52.35
36664;BME280;53333;51.976;20.144;2023-03-01T02:46:56;101481.28;;;-1.75;52.29
36664;BME280;53333;51.976;20.144;2023-03-01T02:49:30;101478.63;;;-1.77;52.25
36664;BME280;53333;51.976;20.144;2023-03-01T02:52:09;101475.97;;;-1.78;52.35
36664;BME280;53333;51.976;20.144;2023-03-01T02:54:47;101478.53;;;-1.81;52.39
36664;BME280;53333;51.976;20.144;2023-03-01T02:57:22;101475.00;;;-1.82;52.24
36664;BME280;53333;51.976;20.144;2023-03-01T02:59:56;101480.31;;;-1.79;52.38
36664;BME280;53333;51.976;20.144;2023-03-01T03:02:31;101468.06;;;-1.80;52.25
36664;BME280;53333;51.976;20.144;2023-03-01T03:05:25;101487.28;;;-1.79;52.21
36664;BME280;53333;51.976;20.144;2023-03-01T03:08:02;101484.66;;;-1.79;52.23
36664;BME280;53333;51.976;20.144;2023-03-01T03:10:39;101474.16;;;-1.81;52.23
36664;BME280;53333;51.976;20.144;2023-03-01T03:13:14;101472.41;;;-1.80;52.24
36664;BME280;53333;51.976;20.144;2023-03-01T03:15:48;101474.16;;;-1.81;52.28
36664;BME280;53333;51.976;20.144;2023-03-01T03:18:23;101475.00;;;-1.82;52.29
36664;BME280;53333;51.976;20.144;2023-03-01T03:21:00;101475.91;;;-1.81;52.23
36664;BME280;53333;51.976;20.144;2023-03-01T03:23:33;101475.91;;;-1.81;52.31
36664;BME280;53333;51.976;20.144;2023-03-01T03:26:07;101478.47;;;-1.83;52.17
36664;BME280;53333;51.976;20.144;2023-03-01T03:28:40;101483.69;;;-1.85;52.22
36664;BME280;53333;51.976;20.144;2023-03-01T03:31:13;101481.94;;;-1.84;52.30
36664;BME280;53333;51.976;20.144;2023-03-01T03:33:47;101474.94;;;-1.84;52.33
36664;BME280;53333;51.976;20.144;2023-03-01T03:36:20;101464.53;;;-1.80;52.30
36664;BME280;53333;51.976;20.144;2023-03-01T03:38:54;101466.31;;;-1.79;52.21
36664;BME280;53333;51.976;20.144;2023-03-01T03:41:27;101459.31;;;-1.80;52.06
36664;BME280;53333;51.976;20.144;2023-03-01T03:43:59;101453.22;;;-1.79;52.15
36664;BME280;53333;51.976;20.144;2023-03-01T03:46:32;101456.72;;;-1.79;52.15
36664;BME280;53333;51.976;20.144;2023-03-01T03:49:07;101455.81;;;-1.81;52.10
36664;BME280;53333;51.976;20.144;2023-03-01T03:51:39;101460.22;;;-1.80;52.24
36664;BME280;53333;51.976;20.144;2023-03-01T03:54:12;101458.47;;;-1.79;52.17
36664;BME280;53333;51.976;20.144;2023-03-01T03:56:45;101455.00;;;-1.78;52.15
36664;BME280;53333;51.976;20.144;2023-03-01T03:59:18;101455.03;;;-1.77;52.07
36664;BME280;53333;51.976;20.144;2023-03-01T04:01:51;101452.47;;;-1.75;51.93
36664;BME280;53333;51.976;20.144;2023-03-01T04:04:25;101455.03;;;-1.77;52.02
36664;BME280;53333;51.976;20.144;2023-03-01T04:06:57;101455.03;;;-1.77;52.04
36664;BME280;53333;51.976;20.144;2023-03-01T04:09:30;101448.91;;;-1.77;51.93
36664;BME280;53333;51.976;20.144;2023-03-01T04:12:03;101441.03;;;-1.77;51.96
36664;BME280;53333;51.976;20.144;2023-03-01T04:14:36;101438.44;;;-1.76;51.93
36664;BME280;53333;51.976;20.144;2023-03-01T04:17:09;101440.22;;;-1.75;51.83
36664;BME280;53333;51.976;20.144;2023-03-01T04:19:43;101440.22;;;-1.75;52.00
36664;BME280;53333;51.976;20.144;2023-03-01T04:22:20;101438.47;;;-1.74;51.85
36664;BME280;53333;51.976;20.144;2023-03-01T04:24:52;101438.47;;;-1.74;51.92
36664;BME280;53333;51.976;20.144;2023-03-01T04:27:26;101443.72;;;-1.74;51.80
36664;BME280;53333;51.976;20.144;2023-03-01T04:29:59;101438.47;;;-1.74;51.83
36664;BME280;53333;51.976;20.144;2023-03-01T04:32:32;101434.13;;;-1.75;51.84
36664;BME280;53333;51.976;20.144;2023-03-01T04:35:06;101428.88;;;-1.75;51.88
36664;BME280;53333;51.976;20.144;2023-03-01T04:37:42;101420.09;;;-1.76;51.94
36664;BME280;53333;51.976;20.144;2023-03-01T04:40:16;101412.28;;;-1.74;51.83
36664;BME280;53333;51.976;20.144;2023-03-01T04:42:49;101404.50;;;-1.71;51.95
36664;BME280;53333;51.976;20.144;2023-03-01T04:45:22;101405.41;;;-1.69;51.82
36664;BME280;53333;51.976;20.144;2023-03-01T04:47:54;101414.22;;;-1.66;52.02
36664;BME280;53333;51.976;20.144;2023-03-01T04:50:30;101418.63;;;-1.63;51.87
36664;BME280;53333;51.976;20.144;2023-03-01T04:53:03;101423.94;;;-1.60;51.82
36664;BME280;53333;51.976;20.144;2023-03-01T04:55:36;101419.63;;;-1.58;51.84
36664;BME280;53333;51.976;20.144;2023-03-01T04:58:09;101420.59;;;-1.54;51.81
36664;BME280;53333;51.976;20.144;2023-03-01T05:00:42;101409.22;;;-1.53;51.81
36664;BME280;53333;51.976;20.144;2023-03-01T05:03:14;101414.50;;;-1.52;51.68
36664;BME280;53333;51.976;20.144;2023-03-01T05:05:51;101404.88;;;-1.53;51.88
36664;BME280;53333;51.976;20.144;2023-03-01T05:08:24;101403.09;;;-1.54;51.83
36664;BME280;53333;51.976;20.144;2023-03-01T05:10:58;101403.09;;;-1.54;51.71
36664;BME280;53333;51.976;20.144;2023-03-01T05:13:31;101407.53;;;-1.51;51.76
36664;BME280;53333;51.976;20.144;2023-03-01T05:16:04;101404.97;;;-1.50;51.68
36664;BME280;53333;51.976;20.144;2023-03-01T05:18:38;101407.63;;;-1.47;51.72
36664;BME280;53333;51.976;20.144;2023-03-01T05:21:12;101400.69;;;-1.44;51.67
36664;BME280;53333;51.976;20.144;2023-03-01T05:23:50;101398.91;;;-1.46;51.68
36664;BME280;53333;51.976;20.144;2023-03-01T05:26:24;101386.72;;;-1.43;51.70
36664;BME280;53333;51.976;20.144;2023-03-01T05:29:00;101387.56;;;-1.44;51.76
36664;BME280;53333;51.976;20.144;2023-03-01T05:31:32;101395.41;;;-1.46;51.60
36664;BME280;53333;51.976;20.144;2023-03-01T05:34:05;101402.41;;;-1.47;51.74
36664;BME280;53333;51.976;20.144;2023-03-01T05:36:39;101402.41;;;-1.47;51.68
36664;BME280;53333;51.976;20.144;2023-03-01T05:39:12;101404.19;;;-1.44;51.73
36664;BME280;53333;51.976;20.144;2023-03-01T05:41:45;101399.91;;;-1.40;51.72
36664;BME280;53333;51.976;20.144;2023-03-01T05:44:17;101401.72;;;-1.36;51.66
36664;BME280;53333;51.976;20.144;2023-03-01T05:46:50;101411.38;;;-1.34;51.61
36664;BME280;53333;51.976;20.144;2023-03-01T05:49:23;101412.31;;;-1.30;51.47
36664;BME280;53333;51.976;20.144;2023-03-01T05:51:58;101407.13;;;-1.29;51.43
36664;BME280;53333;51.976;20.144;2023-03-01T05:54:31;101411.50;;;-1.27;51.64
36664;BME280;53333;51.976;20.144;2023-03-01T05:57:04;101402.81;;;-1.25;51.64
36664;BME280;53333;51.976;20.144;2023-03-01T05:59:37;101408.94;;;-1.23;51.66
36664;BME280;53333;51.976;20.144;2023-03-01T06:02:10;101410.78;;;-1.19;51.63
36664;BME280;53333;51.976;20.144;2023-03-01T06:04:42;101413.50;;;-1.14;51.53
36664;BME280;53333;51.976;20.144;2023-03-01T06:07:17;101413.63;;;-1.08;51.54
36664;BME280;53333;51.976;20.144;2023-03-01T06:09:50;101406.75;;;-1.01;51.46
36664;BME280;53333;51.976;20.144;2023-03-01T06:12:22;101412.16;;;-0.94;51.38
36664;BME280;53333;51.976;20.144;2023-03-01T06:14:55;101408.75;;;-0.86;51.53
36664;BME280;53333;51.976;20.144;2023-03-01T06:17:28;101402.78;;;-0.79;51.38
36664;BME280;53333;51.976;20.144;2023-03-01T06:20:02;101406.44;;;-0.69;51.20
36664;BME280;53333;51.976;20.144;2023-03-01T06:22:36;101410.06;;;-0.61;51.20
36664;BME280;53333;51.976;20.144;2023-03-01T06:25:10;101411.06;;;-0.55;51.13
36664;BME280;53333;51.976;20.144;2023-03-01T06:27:44;101407.72;;;-0.46;51.07
36664;BME280;53333;51.976;20.144;2023-03-01T06:30:18;101418.34;;;-0.38;51.01
36664;BME280;53333;51.976;20.144;2023-03-01T06:32:51;101424.63;;;-0.28;51.05
36664;BME280;53333;51.976;20.144;2023-03-01T06:35:32;101423.06;;;-0.17;50.87
36664;BME280;53333;51.976;20.144;2023-03-01T06:38:07;101421.50;;;-0.04;50.90
36664;BME280;53333;51.976;20.144;2023-03-01T06:40:40;101426.03;;;0.08;50.65
36664;BME280;53333;51.976;20.144;2023-03-01T06:43:13;101419.16;;;0.19;50.63
36664;BME280;53333;51.976;20.144;2023-03-01T06:45:45;101424.59;;;0.31;50.59
36664;BME280;53333;51.976;20.144;2023-03-01T06:48:18;101427.47;;;0.48;50.50
36664;BME280;53333;51.976;20.144;2023-03-01T06:50:51;101427.69;;;0.68;50.37
36664;BME280;53333;51.976;20.144;2023-03-01T06:53:25;101424.44;;;0.88;50.15
36664;BME280;53333;51.976;20.144;2023-03-01T06:55:58;101427.28;;;1.09;50.11
36664;BME280;53333;51.976;20.144;2023-03-01T06:58:31;101420.44;;;1.27;50.03
36664;BME280;53333;51.976;20.144;2023-03-01T07:01:05;101417.94;;;1.41;49.89
36664;BME280;53333;51.976;20.144;2023-03-01T07:03:38;101412.78;;;1.52;49.83
36664;BME280;53333;51.976;20.144;2023-03-01T07:06:11;101418.06;;;1.58;49.79
36664;BME280;53333;51.976;20.144;2023-03-01T07:08:45;101415.47;;;1.64;49.77
36664;BME280;53333;51.976;20.144;2023-03-01T07:11:18;101422.63;;;1.77;49.80
36664;BME280;53333;51.976;20.144;2023-03-01T07:13:50;101423.63;;;1.95;49.70
36664;BME280;53333;51.976;20.144;2023-03-01T07:16:23;101422.00;;;2.15;49.57
36664;BME280;53333;51.976;20.144;2023-03-01T07:18:56;101419.47;;;2.39;49.49
36664;BME280;53333;51.976;20.144;2023-03-01T07:21:30;101425.72;;;2.59;49.27
36664;BME280;53333;51.976;20.144;2023-03-01T07:24:04;101424.03;;;2.78;49.24
36664;BME280;53333;51.976;20.144;2023-03-01T07:26:37;101423.22;;;2.99;49.10
36664;BME280;53333;51.976;20.144;2023-03-01T07:29:10;101415.34;;;3.18;48.83
36664;BME280;53333;51.976;20.144;2023-03-01T07:31:43;101414.50;;;3.42;48.79
36664;BME280;53333;51.976;20.144;2023-03-01T07:34:16;101408.31;;;3.68;48.61
36664;BME280;53333;51.976;20.144;2023-03-01T07:36:49;101405.63;;;3.97;48.41
36664;BME280;53333;51.976;20.144;2023-03-01T07:39:23;101409.97;;;4.23;48.24
36664;BME280;53333;51.976;20.144;2023-03-01T07:41:56;101413.44;;;4.43;48.13
36664;BME280;53333;51.976;20.144;2023-03-01T07:44:28;101414.25;;;4.65;47.96
36664;BME280;53333;51.976;20.144;2023-03-01T07:47:02;101406.19;;;4.90;47.76
36664;BME280;53333;51.976;20.144;2023-03-01T07:49:35;101403.38;;;5.18;47.71
36664;BME280;53333;51.976;20.144;2023-03-01T07:52:09;101395.19;;;5.45;47.51
36664;BME280;53333;51.976;20.144;2023-03-01T07:54:43;101394.88;;;5.84;47.19
36664;BME280;53333;51.976;20.144;2023-03-01T07:57:16;101392.69;;;6.28;46.73
36664;BME280;53333;51.976;20.144;2023-03-01T07:59:49;101387.53;;;6.84;46.16
36664;BME280;53333;51.976;20.144;2023-03-01T08:02:22;101382.88;;;7.57;45.15
36664;BME280;53333;51.976;20.144;2023-03-01T08:04:58;101389.28;;;8.44;44.42
36664;BME280;53333;51.976;20.144;2023-03-01T08:07:31;101375.75;;;9.33;43.27
36664;BME280;53333;51.976;20.144;2023-03-01T08:10:05;101385.75;;;9.95;42.87
36664;BME280;53333;51.976;20.144;2023-03-01T08:12:38;101376.19;;;10.52;42.39
36664;BME280;53333;51.976;20.144;2023-03-01T08:15:11;101373.13;;;11.22;41.50
36664;BME280;53333;51.976;20.144;2023-03-01T08:17:44;101369.31;;;11.83;41.06
36664;BME280;53333;51.976;20.144;2023-03-01T08:20:17;101363.34;;;12.50;40.71
36664;BME280;53333;51.976;20.144;2023-03-01T08:22:50;101349.19;;;13.16;40.04
36664;BME280;53333;51.976;20.144;2023-03-01T08:25:24;101349.13;;;13.60;39.90
36664;BME280;53333;51.976;20.144;2023-03-01T08:27:57;101347.66;;;13.94;39.88
36664;BME280;53333;51.976;20.144;2023-03-01T08:30:30;101352.97;;;14.16;40.23
36664;BME280;53333;51.976;20.144;2023-03-01T08:33:03;101356.88;;;14.49;40.10
36664;BME280;53333;51.976;20.144;2023-03-01T08:35:36;101360.41;;;14.70;40.07
36664;BME280;53333;51.976;20.144;2023-03-01T08:38:09;101353.78;;;15.33;39.92
36664;BME280;53333;51.976;20.144;2023-03-01T08:40:43;101356.97;;;16.28;39.84
36664;BME280;53333;51.976;20.144;2023-03-01T08:43:16;101352.13;;;17.16;38.86
36664;BME280;53333;51.976;20.144;2023-03-01T08:45:49;101351.69;;;18.01;38.40
36664;BME280;53333;51.976;20.144;2023-03-01T08:48:22;101349.66;;;18.76;37.85
36664;BME280;53333;51.976;20.144;2023-03-01T08:50:54;101349.63;;;19.05;37.94
36664;BME280;53333;51.976;20.144;2023-03-01T08:53:27;101350.22;;;19.10;38.04
36664;BME280;53333;51.976;20.144;2023-03-01T08:56:02;101353.47;;;19.42;38.05
36664;BME280;53333;51.976;20.144;2023-03-01T08:58:35;101360.38;;;19.61;38.08
36664;BME280;53333;51.976;20.144;2023-03-01T09:01:09;101354.84;;;19.63;38.37
36664;BME280;53333;51.976;20.144;2023-03-01T09:03:44;101353.50;;;19.95;38.87
36664;BME280;53333;51.976;20.144;2023-03-01T09:06:18;101352.97;;;20.67;38.37
36664;BME280;53333;51.976;20.144;2023-03-01T09:08:51;101344.63;;;21.56;37.73
36664;BME280;53333;51.976;20.144;2023-03-01T09:11:25;101349.97;;;22.27;36.82
36664;BME280;53333;51.976;20.144;2023-03-01T09:13:58;101342.09;;;22.35;37.19
36664;BME280;53333;51.976;20.144;2023-03-01T09:16:31;101338.41;;;22.47;37.19
36664;BME280;53333;51.976;20.144;2023-03-01T09:19:07;101336.53;;;22.82;37.02
36664;BME280;53333;51.976;20.144;2023-03-01T09:21:40;101331.50;;;23.21;36.66
36664;BME280;53333;51.976;20.144;2023-03-01T09:24:15;101340.28;;;23.89;36.50
36664;BME280;53333;51.976;20.144;2023-03-01T09:26:50;101334.44;;;24.25;36.41
36664;BME280;53333;51.976;20.144;2023-03-01T09:29:25;101344.50;;;24.76;35.91
36664;BME280;53333;51.976;20.144;2023-03-01T09:31:58;101336.41;;;25.35;35.85
36664;BME280;53333;51.976;20.144;2023-03-01T09:34:32;101348.91;;;25.86;35.43
36664;BME280;53333;51.976;20.144;2023-03-01T09:37:24;101344.25;;;26.26;35.20
36664;BME280;53333;51.976;20.144;2023-03-01T09:39:57;101342.34;;;26.36;35.15
36664;BME280;53333;51.976;20.144;2023-03-01T09:42:34;101343.28;;;26.17;35.56
36664;BME280;53333;51.976;20.144;2023-03-01T09:45:10;101338.66;;;26.18;36.07
36664;BME280;53333;51.976;20.144;2023-03-01T09:48:09;101338.75;;;26.73;35.56
36664;BME280;53333;51.976;20.144;2023-03-01T09:50:45;101348.38;;;27.05;35.51
36664;BME280;53333;51.976;20.144;2023-03-01T09:53:19;101355.94;;;27.75;34.92
36664;BME280;53333;51.976;20.144;2023-03-01T09:55:54;101361.44;;;28.45;34.15
36664;BME280;53333;51.976;20.144;2023-03-01T09:58:34;101346.78;;;29.06;33.85
36664;BME280;53333;51.976;20.144;2023-03-01T10:01:18;101348.59;;;29.48;33.87
36664;BME280;53333;51.976;20.144;2023-03-01T10:04:00;101345.91;;;29.81;33.64
36664;BME280;53333;51.976;20.144;2023-03-01T10:06:37;101348.28;;;30.00;33.61
36664;BME280;53333;51.976;20.144;2023-03-01T10:09:10;101350.66;;;30.20;33.55
36664;BME280;53333;51.976;20.144;2023-03-01T10:11:45;101342.34;;;30.36;33.65
36664;BME280;53333;51.976;20.144;2023-03-01T10:14:24;101336.22;;;30.10;33.85
36664;BME280;53333;51.976;20.144;2023-03-01T10:17:00;101323.31;;;29.61;34.53
36664;BME280;53333;51.976;20.144;2023-03-01T10:19:36;101323.53;;;28.92;35.20
36664;BME280;53333;51.976;20.144;2023-03-01T10:22:12;101320.59;;;28.16;36.24
36664;BME280;53333;51.976;20.144;2023-03-01T10:24:46;101322.41;;;27.45;36.92
36664;BME280;53333;51.976;20.144;2023-03-01T10:27:20;101310.16;;;27.22;36.98
36664;BME280;53333;51.976;20.144;2023-03-01T10:29:58;101302.16;;;27.28;36.86
36664;BME280;53333;51.976;20.144;2023-03-01T10:32:33;101301.72;;;27.33;36.73
36664;BME280;53333;51.976;20.144;2023-03-01T10:35:15;101301.25;;;27.38;36.82
36664;BME280;53333;51.976;20.144;2023-03-01T10:37:58;101301.00;;;27.67;36.47
36664;BME280;53333;51.976;20.144;2023-03-01T10:40:31;101290.88;;;27.94;35.88
36664;BME280;53333;51.976;20.144;2023-03-01T10:43:04;101288.66;;;28.15;35.90
36664;BME280;53333;51.976;20.144;2023-03-01T10:45:40;101291.00;;;28.36;35.58
36664;BME280;53333;51.976;20.144;2023-03-01T10:48:14;101287.25;;;28.11;35.53
36664;BME280;53333;51.976;20.144;2023-03-01T10:50:48;101280.97;;;27.75;35.90
36664;BME280;53333;51.976;20.144;2023-03-01T10:53:22;101277.78;;;27.35;36.27
36664;BME280;53333;51.976;20.144;2023-03-01T10:55:59;101274.66;;;27.20;36.47
36664;BME280;53333;51.976;20.144;2023-03-01T10:58:33;101277.78;;;27.35;36.36
36664;BME280;53333;51.976;20.144;2023-03-01T11:01:24;101277.50;;;27.64;36.02
36664;BME280;53333;51.976;20.144;2023-03-01T11:04:11;101279.50;;;28.06;35.52
36664;BME280;53333;51.976;20.144;2023-03-01T11:06:44;101268.78;;;27.69;35.82
36664;BME280;53333;51.976;20.144;2023-03-01T11:09:30;101258.91;;;27.32;36.04
36664;BME280;53333;51.976;20.144;2023-03-01T11:12:13;101268.41;;;27.46;36.04
36664;BME280;53333;51.976;20.144;2023-03-01T11:14:47;101269.25;;;27.64;35.61
36664;BME280;53333;51.976;20.144;2023-03-01T11:17:23;101268.81;;;27.95;35.18
36664;BME280;53333;51.976;20.144;2023-03-01T11:20:02;101253.88;;;28.67;34.82
36664;BME280;53333;51.976;20.144;2023-03-01T11:22:46;101256.97;;;29.39;34.07
36664;BME280;53333;51.976;20.144;2023-03-01T11:25:21;101253.34;;;29.22;34.25
36664;BME280;53333;51.976;20.144;2023-03-01T11:27:56;101248.47;;;28.99;34.40
36664;BME280;53333;51.976;20.144;2023-03-01T11:30:33;101249.66;;;28.89;34.49
36664;BME280;53333;51.976;20.144;2023-03-01T11:33:13;101246.06;;;28.88;34.66
36664;BME280;53333;51.976;20.144;2023-03-01T11:35:49;101251.56;;;28.96;34.39
36664;BME280;53333;51.976;20.144;2023-03-01T11:38:28;101242.66;;;29.11;34.51
36664;BME280;53333;51.976;20.144;2023-03-01T11:41:05;101243.22;;;29.39;34.16
36664;BME280;53333;51.976;20.144;2023-03-01T11:43:41;101245.25;;;29.53;34.02
36664;BME280;53333;51.976;20.144;2023-03-01T11:46:32;101252.09;;;29.74;34.12
36664;BME280;53333;51.976;20.144;2023-03-01T11:52:00;101244.75;;;29.25;34.18
36664;BME280;53333;51.976;20.144;2023-03-01T11:54:40;101244.50;;;28.86;34.53
36664;BME280;53333;51.976;20.144;2023-03-01T11:57:18;101224.16;;;28.62;35.00
36664;BME280;53333;51.976;20.144;2023-03-01T12:00:06;101223.00;;;28.73;34.74
36664;BME280;53333;51.976;20.144;2023-03-01T12:03:00;101230.09;;;28.49;34.92
36664;BME280;53333;51.976;20.144;2023-03-01T12:05:49;101225.91;;;28.71;34.85
36664;BME280;53333;51.976;20.144;2023-03-01T12:08:26;101222.56;;;29.35;34.30
36664;BME280;53333;51.976;20.144;2023-03-01T12:11:02;101211.47;;;30.01;33.67
36664;BME280;53333;51.976;20.144;2023-03-01T12:13:47;101209.59;;;29.93;33.76
36664;BME280;53333;51.976;20.144;2023-03-01T12:16:31;101208.94;;;29.66;33.98
36664;BME280;53333;51.976;20.144;2023-03-01T12:22:06;101202.06;;;28.88;34.73
36664;BME280;53333;51.976;20.144;2023-03-01T12:24:47;101203.97;;;28.37;34.92
36664;BME280;53333;51.976;20.144;2023-03-01T12:27:32;101199.38;;;27.77;35.46
36664;BME280;53333;51.976;20.144;2023-03-01T12:30:17;101200.88;;;27.71;35.63
36664;BME280;53333;51.976;20.144;2023-03-01T12:32:57;101197.22;;;27.88;35.52
36664;BME280;53333;51.976;20.144;2023-03-01T12:35:39;101202.22;;;27.93;35.13
36664;BME280;53333;51.976;20.144;2023-03-01T12:38:25;101205.41;;;27.54;35.29
36664;BME280;53333;51.976;20.144;2023-03-01T12:41:16;101199.41;;;26.96;35.94
36664;BME280;53333;51.976;20.144;2023-03-01T12:43:57;101205.41;;;26.64;35.97
36664;BME280;53333;51.976;20.144;2023-03-01T12:46:37;101203.16;;;27.13;35.90
36664;BME280;53333;51.976;20.144;2023-03-01T12:49:13;101200.75;;;27.99;35.02
36664;BME280;53333;51.976;20.144;2023-03-01T12:51:49;101199.44;;;28.62;34.36
36664;BME280;53333;51.976;20.144;2023-03-01T12:54:25;101196.88;;;28.69;34.13
36664;BME280;53333;51.976;20.144;2023-03-01T12:57:02;101195.88;;;28.86;34.49
36664;BME280;53333;51.976;20.144;2023-03-01T12:59:36;101198.81;;;29.09;34.12
36664;BME280;53333;51.976;20.144;2023-03-01T13:02:14;101200.06;;;29.31;33.99
36664;BME280;53333;51.976;20.144;2023-03-01T13:04:53;101200.19;;;29.71;33.64
36664;BME280;53333;51.976;20.144;2023-03-01T13:07:29;101200.22;;;30.19;33.42
36664;BME280;53333;51.976;20.144;2023-03-01T13:10:06;101208.03;;;30.47;33.14
36664;BME280;53333;51.976;20.144;2023-03-01T13:12:52;101200.09;;;30.75;33.22
36664;BME280;53333;51.976;20.144;2023-03-01T13:15:34;101209.06;;;31.00;32.89
36664;BME280;53333;51.976;20.144;2023-03-01T13:21:02;101203.81;;;31.13;32.92
36664;BME280;53333;51.976;20.144;2023-03-01T13:23:37;101194.78;;;31.20;32.88
36664;BME280;53333;51.976;20.144;2023-03-01T13:26:12;101188.28;;;31.36;33.13
36664;BME280;53333;51.976;20.144;2023-03-01T13:28:50;101195.22;;;31.46;33.08
36664;BME280;53333;51.976;20.144;2023-03-01T13:37:08;101171.31;;;29.01;35.20
36664;BME280;53333;51.976;20.144;2023-03-01T13:39:41;101167.69;;;28.68;35.63